Time;durP1;ratioP1;P1;durP2;ratioP2;P2;SDS_P1;SDS_P2;PMS_P1;PMS_P2;Temp;Humidity;BMP_temperature;BMP_pressure;BME280_temperature;BME280_humidity;BME280_pressure;Samples;Min_cycle;Max_cycle;Signal;HPM_P1;HPM_P2
2021/08/13 00:01:47;;;;;;;;;12.00;12.00;;;;;25.86;51.40;101499.72;5070373;28;46432;-62
2021/08/13 00:04:14;;;;;;;;;15.50;14.00;;;;;25.85;51.15;101504.28;5060235;27;45436;-62
2021/08/13 00:06:40;;;;;;;;;8.75;8.75;;;;;25.83;51.42;101497.22;5067242;27;45380;-61
2021/08/13 00:09:08;;;;;;;;;11.50;11.50;;;;;25.81;50.64;101502.78;5073219;28;45685;-61
2021/08/13 00:11:36;;;;;;;;;13.50;12.00;;;;;25.74;50.34;101502.34;5055407;27;47195;-62
2021/08/13 00:14:02;;;;;;;;;13.00;10.25;;;;;25.68;50.51;101502.78;5060683;28;45463;-61
2021/08/13 00:16:28;;;;;;;;;11.00;11.00;;;;;25.63;50.58;101504.94;5057712;28;45382;-61
2021/08/13 00:18:53;;;;;;;;;10.25;10.25;;;;;25.59;49.66;101499.84;5055969;27;46150;-62
2021/08/13 00:21:19;;;;;;;;;12.75;12.75;;;;;25.55;50.25;101511.94;5059408;28;47123;-62
2021/08/13 00:23:44;;;;;;;;;11.00;11.00;;;;;25.52;49.56;101513.00;5057743;27;45566;-62
2021/08/13 00:26:10;;;;;;;;;10.25;10.25;;;;;25.48;49.91;101509.63;5048853;28;45334;-62
2021/08/13 00:28:36;;;;;;;;;9.00;9.00;;;;;25.47;50.10;101517.91;5052059;28;45434;-61
2021/08/13 00:31:01;;;;;;;;;11.00;9.75;;;;;25.46;49.76;101514.31;5055496;28;47358;-61
2021/08/13 00:33:27;;;;;;;;;11.25;11.25;;;;;25.44;49.37;101504.53;5057280;28;45605;-61
2021/08/13 00:35:52;;;;;;;;;11.50;10.50;;;;;25.42;49.16;101514.66;5059377;28;45344;-63
2021/08/13 00:38:18;;;;;;;;;10.50;10.50;;;;;25.40;49.31;101517.44;5059687;27;45727;-61
2021/08/13 00:40:43;;;;;;;;;9.33;9.33;;;;;25.36;49.07;101518.66;5065268;27;47293;-61
2021/08/13 00:43:09;;;;;;;;;11.75;11.75;;;;;25.32;49.17;101513.56;5059406;28;45382;-62
2021/08/13 00:45:34;;;;;;;;;12.25;11.00;;;;;25.30;49.77;101510.97;5058372;28;45458;-61
2021/08/13 00:48:00;;;;;;;;;10.50;9.50;;;;;25.30;49.55;101507.38;5073286;28;45758;-61
2021/08/13 00:50:25;;;;;;;;;10.50;9.75;;;;;25.29;49.24;101502.91;5059283;28;47388;-61
2021/08/13 00:52:51;;;;;;;;;10.50;9.00;;;;;25.27;49.63;101513.00;5058975;28;45372;-61
2021/08/13 00:55:19;;;;;;;;;12.00;10.00;;;;;25.25;49.70;101515.81;5059443;28;45628;-60
2021/08/13 00:57:44;;;;;;;;;9.75;9.75;;;;;25.24;49.47;101523.09;5090599;27;45364;-61
2021/08/13 01:00:10;;;;;;;;;10.00;10.00;;;;;25.22;49.41;101522.34;5063507;28;48232;-61
2021/08/13 01:02:36;;;;;;;;;10.00;10.00;;;;;25.22;49.55;101533.22;5050620;28;45379;-61
2021/08/13 01:05:01;;;;;;;;;10.67;9.00;;;;;25.19;49.71;101525.28;5060635;28;45719;-61
2021/08/13 01:07:27;;;;;;;;;12.00;11.67;;;;;25.15;49.17;101522.88;5073078;27;45351;-61
2021/08/13 01:09:52;;;;;;;;;13.00;10.25;;;;;25.09;49.53;101518.75;5069550;28;48057;-61
2021/08/13 01:12:28;;;;;;;;;10.00;8.00;;;;;25.08;49.53;101521.59;5074216;27;45401;-61
2021/08/13 01:15:06;;;;;;;;;13.00;11.67;;;;;25.07;50.08;101511.69;5067366;28;45463;-61
2021/08/13 01:17:39;;;;;;;;;12.00;10.00;;;;;25.08;50.20;101519.75;5063680;27;45587;-62
2021/08/13 01:20:11;;;;;;;;;13.00;11.33;;;;;25.07;49.92;101523.44;5066070;28;48496;-62
2021/08/13 01:22:44;;;;;;;;;13.33;13.33;;;;;25.08;50.31;101522.44;5069578;27;45917;-61
2021/08/13 01:25:13;;;;;;;;;10.00;10.00;;;;;25.05;50.12;101514.53;5074696;27;45550;-61
2021/08/13 01:27:44;;;;;;;;;14.50;12.75;;;;;25.00;49.71;101518.50;5069830;27;45668;-61
2021/08/13 01:30:16;;;;;;;;;12.00;11.33;;;;;24.91;50.27;101520.88;5067291;27;48166;-61
2021/08/13 01:32:59;;;;;;;;;11.00;10.33;;;;;24.87;50.38;101516.63;5062799;28;45641;-61
2021/08/13 01:35:28;;;;;;;;;11.67;10.67;;;;;24.85;50.60;101513.16;5059749;27;45633;-61
2021/08/13 01:37:59;;;;;;;;;9.67;9.00;;;;;24.82;50.77;101510.66;5069185;28;45247;-62
2021/08/13 01:40:26;;;;;;;;;11.00;10.33;;;;;24.78;50.86;101509.13;5059794;28;47361;-61
2021/08/13 01:42:54;;;;;;;;;13.67;13.67;;;;;24.77;50.90;101509.22;5073619;27;45771;-62
2021/08/13 01:45:27;;;;;;;;;12.00;10.67;;;;;24.74;51.09;101512.13;5068239;28;45512;-61
2021/08/13 01:47:53;;;;;;;;;13.00;9.67;;;;;24.75;50.83;101514.75;5058729;28;45608;-61
2021/08/13 01:50:20;;;;;;;;;10.33;10.33;;;;;24.76;50.73;101521.91;5056197;28;48329;-61
2021/08/13 01:52:46;;;;;;;;;11.33;11.00;;;;;24.77;50.98;101522.78;5061112;28;45391;-61
2021/08/13 01:55:13;;;;;;;;;10.67;10.67;;;;;24.78;50.97;101520.00;5068743;27;45718;-61
2021/08/13 01:57:38;;;;;;;;;12.67;11.67;;;;;24.78;50.35;101520.00;5064091;28;45672;-61
2021/08/13 02:00:06;;;;;;;;;9.00;9.00;;;;;24.77;50.46;101523.66;5069658;27;48130;-61
2021/08/13 02:02:35;;;;;;;;;12.67;11.33;;;;;24.78;50.28;101521.84;5064323;27;45374;-62
2021/08/13 02:05:03;;;;;;;;;8.00;8.00;;;;;24.77;50.34;101509.22;5063907;28;45739;-61
2021/08/13 02:07:30;;;;;;;;;10.00;10.00;;;;;24.77;50.60;101507.38;5065749;28;45430;-61
2021/08/13 02:09:56;;;;;;;;;10.33;10.00;;;;;24.76;50.04;101505.63;5059267;27;46960;-61
2021/08/13 02:12:21;;;;;;;;;12.67;12.67;;;;;24.76;49.88;101508.34;5062645;28;45667;-62
2021/08/13 02:14:47;;;;;;;;;10.33;10.33;;;;;24.78;49.99;101524.56;5064555;27;45369;-62
2021/08/13 02:17:19;;;;;;;;;11.00;11.00;;;;;24.76;50.00;101516.47;5065367;28;45448;-61
2021/08/13 02:20:03;;;;;;;;;9.33;8.33;;;;;24.67;49.43;101528.00;5063716;28;48306;-61
2021/08/13 02:22:29;;;;;;;;;9.00;7.67;;;;;24.56;49.44;101517.00;5065076;28;45805;-62
2021/08/13 02:24:54;;;;;;;;;7.00;7.00;;;;;24.51;49.60;101522.72;5065018;28;45323;-61
2021/08/13 02:27:21;;;;;;;;;7.00;6.33;;;;;24.49;49.62;101513.81;5058927;28;45496;-62
2021/08/13 02:29:46;;;;;;;;;8.00;7.33;;;;;24.48;49.37;101519.34;5067313;28;47933;-62
2021/08/13 02:32:12;;;;;;;;;11.00;11.00;;;;;24.48;49.90;101514.78;5072872;28;45518;-62
2021/08/13 02:34:38;;;;;;;;;7.00;7.00;;;;;24.49;49.64;101513.81;5073028;27;45416;-62
2021/08/13 02:37:18;;;;;;;;;7.00;7.00;;;;;24.49;49.65;101521.06;5078231;28;45685;-62
2021/08/13 02:40:00;;;;;;;;;9.00;9.00;;;;;24.49;49.37;101540.06;5065381;27;46182;-62
2021/08/13 02:42:50;;;;;;;;;9.00;7.50;;;;;24.47;49.03;101532.03;5079894;27;46055;-61
2021/08/13 02:45:20;;;;;;;;;7.00;7.00;;;;;24.42;49.10;101511.63;5066120;27;45377;-62
2021/08/13 02:47:47;;;;;;;;;7.00;7.00;;;;;24.38;49.43;101516.38;5078399;27;45470;-62
2021/08/13 02:50:14;;;;;;;;;11.00;10.33;;;;;24.40;49.15;101514.44;5079927;27;48060;-61
2021/08/13 02:52:48;;;;;;;;;8.00;8.00;;;;;24.41;49.50;101513.47;5077983;27;45742;-62
2021/08/13 02:55:19;;;;;;;;;7.67;6.67;;;;;24.42;49.21;101531.50;5080153;27;45370;-62
2021/08/13 02:57:52;;;;;;;;;5.67;5.67;;;;;24.40;49.19;101528.00;5071006;28;45966;-61
2021/08/13 03:00:19;;;;;;;;;6.00;6.00;;;;;24.41;49.15;101523.44;5092007;27;48528;-61
2021/08/13 03:02:48;;;;;;;;;6.00;6.00;;;;;24.42;49.10;101525.19;5062373;27;45491;-61
2021/08/13 03:05:16;;;;;;;;;8.67;8.33;;;;;24.43;49.33;101525.09;5074080;27;45428;-62
2021/08/13 03:07:42;;;;;;;;;7.00;7.00;;;;;24.44;49.17;101528.66;5079953;27;45515;-61
2021/08/13 03:10:09;;;;;;;;;6.00;5.67;;;;;24.44;48.97;101534.97;5069182;27;47146;-61
2021/08/13 03:12:37;;;;;;;;;7.00;7.00;;;;;24.46;48.96;101533.00;5063043;28;45468;-62
2021/08/13 03:15:03;;;;;;;;;6.67;6.67;;;;;24.46;49.06;101533.00;5076776;27;45587;-61
2021/08/13 03:17:30;;;;;;;;;7.33;7.33;;;;;24.47;48.93;101534.75;5073271;27;45406;-62
2021/08/13 03:19:55;;;;;;;;;6.33;6.33;;;;;24.48;48.81;101538.34;5058330;28;47178;-62
2021/08/13 03:22:21;;;;;;;;;12.33;8.00;;;;;24.48;48.84;101535.63;5028485;28;48261;-62
2021/08/13 03:24:48;;;;;;;;;7.00;7.00;;;;;24.50;48.70;101534.53;5047633;28;45582;-62
2021/08/13 03:27:16;;;;;;;;;5.67;5.67;;;;;24.49;48.58;101534.66;5044800;28;45731;-61
2021/08/13 03:29:42;;;;;;;;;7.00;7.00;;;;;24.49;48.78;101527.38;5048881;28;48200;-61
2021/08/13 03:32:08;;;;;;;;;8.33;7.33;;;;;24.48;48.49;101525.63;5043342;28;46208;-61
2021/08/13 03:34:34;;;;;;;;;6.00;6.00;;;;;24.47;48.47;101523.91;5050719;28;45892;-62
2021/08/13 03:37:00;;;;;;;;;5.00;5.00;;;;;24.46;48.59;101524.88;5089472;27;45605;-62
2021/08/13 03:39:26;;;;;;;;;6.33;6.33;;;;;24.46;48.29;101529.44;5063920;28;46319;-62
2021/08/13 03:41:52;;;;;;;;;6.33;6.33;;;;;24.41;48.42;101535.19;5076288;28;44802;-61
2021/08/13 03:44:17;;;;;;;;;8.00;7.00;;;;;24.40;48.37;101532.56;5079700;27;45354;-62
2021/08/13 03:46:42;;;;;;;;;5.67;5.00;;;;;24.36;48.16;101532.75;5075954;28;45420;-61
2021/08/13 03:49:08;;;;;;;;;5.00;4.00;;;;;24.32;48.14;101531.22;5069275;27;48107;-62
2021/08/13 03:51:34;;;;;;;;;7.00;7.00;;;;;24.33;48.48;101534.81;5070677;27;45386;-61
2021/08/13 03:54:00;;;;;;;;;5.67;5.67;;;;;24.32;48.34;101536.66;5064413;28;45833;-63
2021/08/13 03:56:26;;;;;;;;;8.00;6.00;;;;;24.29;48.27;101525.97;5074690;28;46661;-63
2021/08/13 03:58:51;;;;;;;;;8.00;6.00;;;;;24.29;48.66;101530.53;5062949;28;47203;-61
2021/08/13 04:01:16;;;;;;;;;5.67;5.67;;;;;24.26;48.36;101531.56;5065743;28;45314;-62
2021/08/13 04:03:42;;;;;;;;;6.00;6.00;;;;;24.24;48.57;101544.38;5059973;28;45345;-62
2021/08/13 04:06:07;;;;;;;;;5.33;5.33;;;;;24.21;48.53;101530.16;5064244;28;45720;-62
2021/08/13 04:08:33;;;;;;;;;7.33;7.33;;;;;24.19;48.47;101541.09;5060956;28;47461;-63
2021/08/13 04:10:58;;;;;;;;;7.00;5.75;;;;;24.19;48.71;101549.25;5061372;27;45341;-62
2021/08/13 04:13:24;;;;;;;;;5.00;5.00;;;;;24.20;48.48;101547.41;5058061;28;45237;-62
2021/08/13 04:15:49;;;;;;;;;7.00;5.00;;;;;24.15;48.25;101549.56;5069088;28;45449;-62
2021/08/13 04:18:15;;;;;;;;;5.00;5.00;;;;;24.11;48.79;101553.41;5071100;27;48511;-62
2021/08/13 04:20:40;;;;;;;;;7.00;6.67;;;;;24.10;48.62;101557.09;5068203;28;45410;-62
2021/08/13 04:23:06;;;;;;;;;5.00;4.67;;;;;24.08;48.54;101562.63;5071657;27;45848;-62
2021/08/13 04:25:31;;;;;;;;;5.00;5.00;;;;;24.04;48.50;101559.25;5052638;28;45491;-62
2021/08/13 04:27:57;;;;;;;;;6.00;6.00;;;;;24.02;48.79;101561.19;5051668;28;48143;-62
2021/08/13 04:30:24;;;;;;;;;5.00;5.00;;;;;24.02;49.00;101557.63;5067622;28;45432;-61
2021/08/13 04:32:50;;;;;;;;;5.00;5.00;;;;;24.03;49.07;101562.94;5073041;27;45654;-61
2021/08/13 04:35:16;;;;;;;;;7.00;7.00;;;;;24.03;48.98;101556.66;5076652;28;45638;-62
2021/08/13 04:37:41;;;;;;;;;6.00;6.00;;;;;24.03;49.06;101565.66;5073008;28;45374;-62
2021/08/13 04:40:08;;;;;;;;;7.00;6.33;;;;;24.04;49.03;101561.09;5065325;27;45475;-62
2021/08/13 04:42:33;;;;;;;;;6.00;5.67;;;;;24.03;49.59;101559.34;5073146;27;46012;-62
2021/08/13 04:44:59;;;;;;;;;6.33;6.33;;;;;24.04;49.31;101555.66;5076814;27;45594;-62
2021/08/13 04:47:24;;;;;;;;;8.00;8.00;;;;;23.97;49.07;101562.44;5064402;27;47302;-62
2021/08/13 04:49:50;;;;;;;;;7.33;6.33;;;;;23.90;49.31;101564.69;5072326;27;45402;-62
2021/08/13 04:52:16;;;;;;;;;7.00;7.00;;;;;23.89;49.70;101564.81;5061646;28;45540;-62
2021/08/13 04:54:46;;;;;;;;;10.00;8.00;;;;;23.89;49.47;101565.66;5075184;27;45369;-62
2021/08/13 04:57:11;;;;;;;;;6.00;6.00;;;;;23.86;49.32;101567.69;5065947;28;47338;-62
2021/08/13 04:59:37;;;;;;;;;5.33;5.33;;;;;23.84;49.64;101570.50;5065139;27;45267;-62
2021/08/13 05:02:03;;;;;;;;;8.00;6.67;;;;;23.84;49.49;101575.03;5058844;28;45946;-66
2021/08/13 05:04:28;;;;;;;;;8.00;8.00;;;;;23.85;49.91;101574.06;5058018;28;45594;-65
2021/08/13 05:06:54;;;;;;;;;7.67;6.67;;;;;23.85;50.17;101580.38;5059744;28;47415;-66
2021/08/13 05:09:19;;;;;;;;;7.67;7.67;;;;;23.86;49.84;101581.25;5059947;28;45252;-62
2021/08/13 05:11:45;;;;;;;;;6.67;6.00;;;;;23.87;49.81;101591.97;5056570;28;45741;-62
2021/08/13 05:14:10;;;;;;;;;7.00;6.33;;;;;23.87;50.18;101591.09;5064789;28;45425;-62
2021/08/13 05:16:36;;;;;;;;;7.00;5.00;;;;;23.89;50.00;101592.78;5065454;28;47801;-65
2021/08/13 05:19:02;;;;;;;;;7.00;7.00;;;;;23.90;49.70;101597.22;5059131;28;45524;-62
2021/08/13 05:21:27;;;;;;;;;6.33;6.33;;;;;23.91;49.90;101593.56;5063061;27;45536;-63
2021/08/13 05:23:53;;;;;;;;;7.67;6.67;;;;;23.92;50.03;101595.28;5061331;27;45576;-64
2021/08/13 05:26:18;;;;;;;;;7.00;7.00;;;;;23.92;49.69;101605.25;5061128;28;47141;-63
2021/08/13 05:28:44;;;;;;;;;6.33;6.00;;;;;23.90;49.67;101612.63;5059042;28;45405;-62
2021/08/13 05:31:09;;;;;;;;;7.33;6.00;;;;;23.85;49.65;101612.03;5058641;28;45468;-62
2021/08/13 05:33:35;;;;;;;;;6.67;6.67;;;;;23.81;49.81;101618.63;5060438;28;45479;-62
2021/08/13 05:36:00;;;;;;;;;7.00;6.00;;;;;23.76;50.03;101618.91;5060705;28;48288;-63
2021/08/13 05:38:26;;;;;;;;;5.67;5.67;;;;;23.76;50.14;101627.06;5057786;28;45275;-63
2021/08/13 05:40:51;;;;;;;;;7.67;7.67;;;;;23.73;50.01;101621.78;5082784;27;45250;-62
2021/08/13 05:43:17;;;;;;;;;8.00;7.33;;;;;23.70;50.10;101627.41;5058804;28;45591;-63
2021/08/13 05:45:43;;;;;;;;;4.33;3.33;;;;;23.65;49.94;101630.41;5058228;28;46398;-64
2021/08/13 05:48:09;;;;;;;;;4.67;4.33;;;;;23.63;50.13;101626.94;5061033;28;45946;-63
2021/08/13 05:50:34;;;;;;;;;24.25;22.75;;;;;23.66;50.32;101620.44;5056985;28;45598;-63
2021/08/13 05:53:00;;;;;;;;;18.25;17.00;;;;;23.70;50.33;101622.00;5065676;28;45630;-63
2021/08/13 05:55:25;;;;;;;;;10.67;9.67;;;;;23.74;50.36;101628.97;5075464;27;47234;-62
2021/08/13 05:57:51;;;;;;;;;8.00;8.00;;;;;23.77;50.48;101629.66;5071335;28;45404;-63
2021/08/13 06:00:17;;;;;;;;;9.67;8.67;;;;;23.83;50.15;101641.06;5065336;27;45776;-63
2021/08/13 06:02:58;;;;;;;;;9.00;9.00;;;;;23.83;49.81;101641.94;5060768;27;45578;-63
2021/08/13 06:05:24;;;;;;;;;6.33;6.00;;;;;23.85;50.00;101644.56;5059175;28;46226;-63
2021/08/13 06:07:50;;;;;;;;;6.00;6.00;;;;;23.88;49.63;101647.06;5070397;27;45312;-64
2021/08/13 06:10:16;;;;;;;;;5.67;5.67;;;;;23.81;49.63;101637.59;5075795;27;45413;-66
2021/08/13 06:12:42;;;;;;;;;6.00;6.00;;;;;23.78;49.43;101635.94;5070729;27;45777;-63
2021/08/13 06:15:08;;;;;;;;;5.00;5.00;;;;;23.78;50.20;101625.13;5068703;28;47330;-62
2021/08/13 06:17:33;;;;;;;;;6.00;6.00;;;;;23.81;49.83;101633.03;5055270;28;45379;-62
2021/08/13 06:19:59;;;;;;;;;7.33;7.00;;;;;23.85;49.94;101631.88;5060127;27;45654;-62
2021/08/13 06:22:24;;;;;;;;;7.00;5.67;;;;;23.89;49.96;101641.56;5070794;28;45519;-62
2021/08/13 06:24:50;;;;;;;;;6.00;6.00;;;;;23.94;49.64;101646.69;5062313;27;47235;-62
2021/08/13 06:27:15;;;;;;;;;6.33;5.67;;;;;23.95;49.28;101651.16;5064777;28;45797;-62
2021/08/13 06:29:40;;;;;;;;;6.00;5.00;;;;;23.97;49.56;101654.63;5079147;27;45381;-62
2021/08/13 06:32:06;;;;;;;;;6.00;6.00;;;;;24.01;50.03;101657.06;5056031;27;45303;-62
2021/08/13 06:34:32;;;;;;;;;7.33;6.00;;;;;24.03;49.26;101655.13;5059451;28;48039;-62
2021/08/13 06:36:57;;;;;;;;;7.33;5.67;;;;;24.04;48.97;101666.84;5077565;27;45552;-61
2021/08/13 06:39:23;;;;;;;;;6.67;5.67;;;;;24.05;48.99;101668.59;5065758;28;45338;-60
2021/08/13 06:41:48;;;;;;;;;7.00;7.00;;;;;24.05;48.60;101680.31;5051095;28;45380;-61
2021/08/13 06:44:14;;;;;;;;;7.00;7.00;;;;;24.08;48.96;101674.69;5068247;28;46372;-61
2021/08/13 06:46:41;;;;;;;;;6.00;6.00;;;;;24.10;49.03;101680.00;5063679;28;45386;-61
2021/08/13 06:49:07;;;;;;;;;4.00;4.00;;;;;24.13;49.08;101677.09;5062074;28;45427;-62
2021/08/13 06:51:32;;;;;;;;;5.00;5.00;;;;;24.17;48.60;101678.66;5068990;27;45506;-61
2021/08/13 06:53:58;;;;;;;;;7.00;5.00;;;;;24.18;48.52;101674.97;5076109;27;46867;-61
2021/08/13 06:56:23;;;;;;;;;8.33;6.67;;;;;24.14;48.45;101681.56;5055133;28;45415;-62
2021/08/13 06:58:49;;;;;;;;;4.33;4.00;;;;;24.10;48.46;101687.28;5055325;28;45625;-61
2021/08/13 07:01:15;;;;;;;;;25.00;24.00;;;;;24.05;48.57;101676.72;5064860;28;45344;-61
2021/08/13 07:03:40;;;;;;;;;6.00;4.00;;;;;24.05;48.62;101677.59;5054803;28;47018;-61
2021/08/13 07:06:06;;;;;;;;;7.67;7.00;;;;;24.04;48.59;101672.28;5058105;28;45275;-62
2021/08/13 07:08:31;;;;;;;;;7.00;5.33;;;;;24.07;48.57;101674.78;5061377;28;45512;-62
2021/08/13 07:10:57;;;;;;;;;7.67;6.00;;;;;24.09;48.74;101678.25;5060867;27;46171;-62
2021/08/13 07:13:22;;;;;;;;;4.67;4.67;;;;;24.11;48.81;101686.31;5053874;28;47944;-62
2021/08/13 07:15:48;;;;;;;;;5.00;5.00;;;;;24.15;48.44;101690.59;5054782;28;45311;-63
2021/08/13 07:18:13;;;;;;;;;7.00;5.33;;;;;24.17;48.59;101700.38;5072952;28;45354;-62
2021/08/13 07:20:39;;;;;;;;;5.33;5.33;;;;;24.18;48.55;101699.38;5059986;28;45494;-63
2021/08/13 07:23:04;;;;;;;;;4.67;4.67;;;;;24.21;48.41;101703.75;5061042;28;47368;-63
2021/08/13 07:25:29;;;;;;;;;7.00;5.33;;;;;24.22;48.49;101706.34;5060706;27;45275;-63
2021/08/13 07:27:55;;;;;;;;;6.00;6.00;;;;;24.27;48.50;101706.09;5054311;28;45546;-63
2021/08/13 07:30:20;;;;;;;;;5.00;5.00;;;;;24.28;48.25;101705.13;5060268;28;45558;-63
2021/08/13 07:32:46;;;;;;;;;5.67;5.67;;;;;24.29;48.37;101710.44;5048779;27;47343;-63
2021/08/13 07:35:13;;;;;;;;;4.00;4.00;;;;;24.33;48.55;101714.72;5058595;28;45354;-63
2021/08/13 07:37:39;;;;;;;;;4.67;4.67;;;;;24.34;48.42;101716.47;5043066;28;45555;-63
2021/08/13 07:40:06;;;;;;;;;5.00;5.00;;;;;24.32;47.99;101723.84;5058004;28;45618;-63
2021/08/13 07:42:33;;;;;;;;;6.33;4.00;;;;;24.32;47.92;101718.41;5060549;28;47910;-63
2021/08/13 07:44:59;;;;;;;;;3.00;3.00;;;;;24.30;48.01;101727.63;5059982;28;45295;-63
2021/08/13 07:47:25;;;;;;;;;5.00;4.00;;;;;24.28;48.08;101732.25;5056169;28;45495;-63
2021/08/13 07:49:50;;;;;;;;;6.33;5.33;;;;;24.26;48.32;101736.84;5050167;28;45542;-63
2021/08/13 07:52:16;;;;;;;;;4.67;4.67;;;;;24.22;48.07;101735.31;5059694;28;47393;-64
2021/08/13 07:54:41;;;;;;;;;3.67;3.67;;;;;24.20;48.18;101732.72;5051956;28;45608;-63
2021/08/13 07:57:07;;;;;;;;;5.00;5.00;;;;;24.21;48.24;101742.59;5048494;28;45499;-63
2021/08/13 07:59:34;;;;;;;;;4.67;4.67;;;;;24.21;48.45;101739.00;5059115;28;45361;-62
2021/08/13 08:01:59;;;;;;;;;3.33;3.00;;;;;24.20;48.01;101740.84;5053494;28;46402;-62
2021/08/13 08:04:25;;;;;;;;;6.00;4.67;;;;;24.22;48.48;101747.03;5059115;28;45879;-62
2021/08/13 08:06:55;;;;;;;;;5.33;5.00;;;;;24.26;48.19;101747.72;5056807;28;45435;-62
2021/08/13 08:09:21;;;;;;;;;4.00;3.00;;;;;24.31;48.25;101753.78;5055757;28;45854;-61
2021/08/13 08:11:46;;;;;;;;;4.00;4.00;;;;;24.32;48.12;101760.94;5059183;28;46521;-61
2021/08/13 08:14:12;;;;;;;;;4.00;4.00;;;;;24.36;48.24;101762.47;5083146;27;45494;-61
2021/08/13 08:16:37;;;;;;;;;7.67;5.67;;;;;24.44;48.11;101768.31;5063333;28;46829;-61
2021/08/13 08:19:02;;;;;;;;;6.00;3.33;;;;;24.49;47.99;101781.56;5062422;28;45577;-61
2021/08/13 08:21:28;;;;;;;;;3.00;3.00;;;;;24.52;48.22;101773.22;5059022;28;48544;-61
2021/08/13 08:23:53;;;;;;;;;6.00;6.00;;;;;24.59;47.93;101775.47;5055764;27;45766;-61
2021/08/13 08:26:19;;;;;;;;;6.67;6.67;;;;;24.65;47.79;101777.81;5064831;28;45589;-61
2021/08/13 08:28:45;;;;;;;;;4.67;4.67;;;;;24.69;47.48;101772.19;5065396;28;45730;-61
2021/08/13 08:31:12;;;;;;;;;4.67;3.67;;;;;24.72;47.51;101780.13;5060379;28;48118;-61
2021/08/13 08:33:37;;;;;;;;;4.67;3.67;;;;;24.70;47.33;101772.09;5057939;28;45591;-62
2021/08/13 08:36:03;;;;;;;;;3.67;3.00;;;;;24.70;47.79;101773.91;5094065;27;45460;-61
2021/08/13 08:38:29;;;;;;;;;4.00;4.00;;;;;24.70;47.54;101776.63;5067267;28;45403;-61
2021/08/13 08:40:55;;;;;;;;;3.00;3.00;;;;;24.70;47.60;101774.78;5084327;27;47066;-61
2021/08/13 08:43:22;;;;;;;;;2.00;2.00;;;;;24.71;47.44;101778.38;5075015;27;45519;-61
2021/08/13 08:45:50;;;;;;;;;3.33;3.33;;;;;24.72;47.72;101785.56;5076029;28;45388;-61
2021/08/13 08:48:20;;;;;;;;;3.00;3.00;;;;;24.73;47.53;101784.56;5077591;28;45258;-61
2021/08/13 08:50:48;;;;;;;;;2.00;1.67;;;;;24.74;47.46;101775.47;5073514;28;45536;-61
2021/08/13 08:53:23;;;;;;;;;5.33;4.67;;;;;24.77;47.48;101783.41;5081355;27;45808;-62
2021/08/13 08:55:52;;;;;;;;;6.00;6.00;;;;;24.80;47.58;101778.66;5103511;27;45443;-61
2021/08/13 08:58:20;;;;;;;;;4.33;4.33;;;;;24.83;47.33;101785.72;5066502;27;45398;-61
2021/08/13 09:00:50;;;;;;;;;4.67;3.67;;;;;24.85;47.27;101781.06;5072013;28;45727;-62
2021/08/13 09:03:21;;;;;;;;;5.00;4.00;;;;;24.87;47.30;101766.41;5065373;28;45502;-63
2021/08/13 09:05:48;;;;;;;;;4.33;4.00;;;;;24.93;47.43;101773.31;5071230;28;45634;-62
2021/08/13 09:08:16;;;;;;;;;5.00;4.00;;;;;24.98;47.35;101767.56;5071318;28;45326;-62
2021/08/13 09:10:44;;;;;;;;;4.00;4.00;;;;;25.03;47.57;101760.91;5062207;28;47941;-62
2021/08/13 09:13:10;;;;;;;;;6.67;5.00;;;;;25.09;47.61;101757.78;5070804;28;45440;-62
2021/08/13 09:15:41;;;;;;;;;4.00;4.00;;;;;25.14;47.45;101765.59;5072078;28;45446;-62
2021/08/13 09:18:16;;;;;;;;;4.00;4.00;;;;;25.17;47.04;101758.16;5069665;28;45282;-62
2021/08/13 09:21:00;;;;;;;;;5.67;5.00;;;;;25.19;47.17;101758.91;5071211;28;46246;-62
2021/08/13 09:23:44;;;;;;;;;4.00;4.00;;;;;25.23;47.11;101770.44;5061442;28;45781;-62
2021/08/13 09:26:15;;;;;;;;;8.00;7.33;;;;;25.24;46.86;101777.63;5105187;27;45404;-62
2021/08/13 09:28:55;;;;;;;;;3.67;3.67;;;;;25.28;47.00;101778.28;5060821;28;45504;-61
2021/08/13 09:31:34;;;;;;;;;2.00;2.00;;;;;25.31;47.08;101778.97;5059284;28;45473;-61
2021/08/13 09:34:14;;;;;;;;;4.00;3.00;;;;;25.33;46.89;101771.59;5062124;28;45657;-62
2021/08/13 09:36:49;;;;;;;;;3.33;3.33;;;;;25.36;46.47;101771.38;5054734;28;46800;-62
2021/08/13 09:39:14;;;;;;;;;4.67;2.67;;;;;25.40;47.03;101772.91;5062987;28;45587;-62
2021/08/13 09:41:49;;;;;;;;;3.00;3.00;;;;;25.45;46.43;101773.47;5060963;28;47388;-62
2021/08/13 09:44:27;;;;;;;;;4.00;4.00;;;;;25.52;46.82;101763.03;5059592;28;45350;-62
2021/08/13 09:47:08;;;;;;;;;3.67;3.67;;;;;25.59;46.20;101768.94;5059953;28;45439;-62
2021/08/13 09:49:40;;;;;;;;;6.00;6.00;;;;;25.64;46.30;101759.50;5059961;28;45711;-62
2021/08/13 09:52:12;;;;;;;;;4.33;4.33;;;;;25.70;46.58;101759.13;5056105;28;48189;-62
2021/08/13 09:54:38;;;;;;;;;5.67;4.00;;;;;25.73;45.90;101756.19;5052352;28;46120;-61
2021/08/13 09:57:07;;;;;;;;;4.67;4.00;;;;;25.74;46.33;101759.78;5059548;28;45669;-61
2021/08/13 09:59:33;;;;;;;;;5.67;5.33;;;;;25.76;45.87;101755.97;5061784;28;45668;-62
2021/08/13 10:02:08;;;;;;;;;7.00;5.00;;;;;25.77;46.32;101754.97;5052409;28;48059;-61
2021/08/13 10:04:34;;;;;;;;;5.33;4.33;;;;;25.78;46.36;101750.41;5059149;28;46097;-62
2021/08/13 10:06:59;;;;;;;;;5.00;3.67;;;;;25.78;45.97;101756.72;5060273;27;45661;-62
2021/08/13 10:09:29;;;;;;;;;5.00;5.00;;;;;25.81;45.74;101751.09;5050962;28;45417;-61
2021/08/13 10:11:57;;;;;;;;;5.33;4.33;;;;;25.82;46.45;101751.97;5063969;28;45619;-61
2021/08/13 10:14:34;;;;;;;;;4.00;4.00;;;;;25.85;46.26;101751.75;5064606;28;45492;-61
2021/08/13 10:17:10;;;;;;;;;5.00;4.67;;;;;25.85;46.27;101743.59;5049667;28;46328;-61
2021/08/13 10:19:38;;;;;;;;;5.67;4.00;;;;;25.86;45.77;101742.59;5049774;28;46340;-61
2021/08/13 10:22:04;;;;;;;;;4.00;4.00;;;;;25.86;45.65;101748.03;5054272;28;47413;-61
2021/08/13 10:24:30;;;;;;;;;5.33;4.33;;;;;25.87;46.29;101749.78;5053057;28;45330;-62
2021/08/13 10:26:57;;;;;;;;;5.00;5.00;;;;;25.89;45.70;101744.22;5075698;27;45718;-63
2021/08/13 10:29:25;;;;;;;;;5.00;5.00;;;;;25.91;46.10;101740.44;5059301;27;45403;-63
2021/08/13 10:31:51;;;;;;;;;5.67;5.67;;;;;25.91;46.15;101748.59;5060026;28;45535;-63
2021/08/13 10:34:17;;;;;;;;;6.00;5.67;;;;;25.91;46.28;101743.13;5060198;28;45980;-63
2021/08/13 10:36:47;;;;;;;;;6.67;5.33;;;;;25.92;46.15;101747.63;5048549;28;45386;-64
2021/08/13 10:39:15;;;;;;;;;8.00;5.00;;;;;25.94;46.19;101752.97;5057781;28;45388;-63
2021/08/13 10:41:42;;;;;;;;;7.33;7.33;;;;;25.95;46.11;101751.97;5060674;28;45626;-63
2021/08/13 10:44:13;;;;;;;;;7.00;7.00;;;;;25.96;46.27;101746.44;5062650;28;45541;-61
2021/08/13 10:46:40;;;;;;;;;5.67;5.67;;;;;26.02;46.43;101750.56;5062070;28;45616;-62
2021/08/13 10:49:10;;;;;;;;;8.00;7.00;;;;;26.15;46.49;101742.41;5059896;28;45341;-61
2021/08/13 10:51:36;;;;;;;;;8.67;7.00;;;;;26.29;46.27;101745.00;5031865;28;47900;-63
2021/08/13 10:54:14;;;;;;;;;5.00;5.00;;;;;26.43;45.69;101746.81;5080179;27;45416;-67
2021/08/13 10:56:45;;;;;;;;;9.67;8.67;;;;;26.51;45.86;101745.25;5054284;28;45459;-62
2021/08/13 10:59:12;;;;;;;;;8.33;7.67;;;;;26.58;45.70;101749.28;5053219;28;45519;-65
2021/08/13 11:02:18;;;;;;;;;8.00;8.00;;;;;26.65;45.21;101745.09;5058471;28;45542;-62
2021/08/13 11:04:49;;;;;;;;;10.00;8.00;;;;;26.69;45.43;101745.78;5021589;28;45402;-65
2021/08/13 11:07:53;;;;;;;;;21.00;19.75;;;;;26.68;44.87;101747.63;5033475;28;45362;-63
2021/08/13 11:10:36;;;;;;;;;10.00;10.00;;;;;26.67;45.22;101747.72;5046566;28;45605;-61
2021/08/13 11:13:18;;;;;;;;;10.00;10.00;;;;;26.65;44.67;101736.06;5061951;28;47143;-61
2021/08/13 11:15:46;;;;;;;;;12.75;12.75;;;;;26.66;44.96;101733.22;5052330;28;45482;-62
2021/08/13 11:18:36;;;;;;;;;14.50;14.50;;;;;26.69;45.00;101746.66;5048867;28;45393;-62
2021/08/13 11:21:04;;;;;;;;;12.00;12.00;;;;;26.73;45.18;101739.13;5066286;28;45386;-61
2021/08/13 11:23:32;;;;;;;;;11.00;11.00;;;;;26.74;44.76;101737.25;5093939;27;46436;-62
2021/08/13 11:25:58;;;;;;;;;12.00;11.00;;;;;26.75;44.59;101733.56;5061075;28;45553;-62